createdAt,value
2023-02-23T00:04:19.564Z,99257.30
2023-02-23T00:09:35.538Z,99258.14
2023-02-23T00:14:44.640Z,99256.94
2023-02-23T00:19:52.982Z,99253.21
2023-02-23T00:25:00.559Z,99248.89
2023-02-23T00:30:12.378Z,99249.87
2023-02-23T00:35:20.160Z,99254.56
2023-02-23T00:40:27.854Z,99248.30
2023-02-23T00:45:36.988Z,99249.82
2023-02-23T00:50:44.425Z,99254.77
2023-02-23T00:55:51.684Z,99253.04
2023-02-23T01:01:00.244Z,99252.98
2023-02-23T01:06:11.915Z,99252.59
2023-02-23T01:11:22.735Z,99252.20
2023-02-23T01:16:33.853Z,99250.69
2023-02-23T01:21:43.514Z,99247.22
2023-02-23T01:26:51.813Z,99242.73
2023-02-23T01:31:59.145Z,99239.93
2023-02-23T01:37:06.592Z,99238.19
2023-02-23T01:42:14.427Z,99233.17
2023-02-23T01:47:22.313Z,99231.03
2023-02-23T01:52:29.669Z,99230.08
2023-02-23T01:57:35.439Z,99222.72
2023-02-23T02:02:43.289Z,99217.52
2023-02-23T02:07:59.311Z,99214.28
2023-02-23T02:13:08.107Z,99213.17
2023-02-23T02:18:24.210Z,99209.23
2023-02-23T02:23:53.740Z,99206.67
2023-02-23T02:29:39.530Z,99204.30
2023-02-23T02:35:25.113Z,99200.21
2023-02-23T02:40:38.982Z,99203.00
2023-02-23T02:45:53.459Z,99196.34
2023-02-23T02:51:09.505Z,99193.03
2023-02-23T02:56:21.261Z,99187.93
2023-02-23T03:01:45.968Z,99184.33
2023-02-23T03:07:17.729Z,99182.50
2023-02-23T03:12:52.584Z,99181.35
2023-02-23T03:18:28.454Z,99179.84
2023-02-23T03:28:36.440Z,99174.96
2023-02-23T03:34:10.569Z,99173.48
2023-02-23T03:39:41.776Z,99175.83
2023-02-23T03:45:10.228Z,99180.34
2023-02-23T03:50:44.892Z,99184.02
2023-02-23T03:56:16.363Z,99182.00
2023-02-23T04:13:06.118Z,99183.93
2023-02-23T04:18:17.705Z,99173.13
2023-02-23T04:23:26.401Z,99181.48
2023-02-23T04:28:35.078Z,99180.09
2023-02-23T04:33:42.422Z,99171.86
2023-02-23T04:38:50.040Z,99174.67
2023-02-23T04:43:57.736Z,99173.48
2023-02-23T04:49:05.208Z,99172.19
2023-02-23T04:54:12.505Z,99172.07
2023-02-23T04:59:20.495Z,99169.15
2023-02-23T05:04:27.862Z,99163.85
2023-02-23T05:09:33.593Z,99166.83
2023-02-23T05:14:40.972Z,99164.37
2023-02-23T05:19:46.456Z,99162.73
2023-02-23T05:29:00.206Z,99166.40
2023-02-23T05:34:08.066Z,99170.99
2023-02-23T05:39:16.171Z,99177.85
2023-02-23T05:44:23.878Z,99174.05
2023-02-23T05:49:31.666Z,99171.88
2023-02-23T05:54:39.643Z,99171.62
2023-02-23T05:59:47.033Z,99176.90
2023-02-23T06:04:56.219Z,99177.56
2023-02-23T06:10:04.422Z,99176.97
2023-02-23T06:15:13.746Z,99176.33
2023-02-23T06:20:22.139Z,99180.73
2023-02-23T06:25:30.475Z,99180.98
2023-02-23T06:30:38.825Z,99185.58
2023-02-23T06:35:47.019Z,99185.69
2023-02-23T06:40:55.221Z,99189.63
2023-02-23T06:46:02.910Z,99190.63
2023-02-23T06:51:11.203Z,99187.64
2023-02-23T06:56:19.911Z,99194.79
2023-02-23T07:01:27.688Z,99195.06
2023-02-23T07:06:35.267Z,99189.88
2023-02-23T07:11:45.010Z,99195.99
2023-02-23T07:16:52.871Z,99195.62
2023-02-23T07:22:00.774Z,99198.31
2023-02-23T07:27:08.398Z,99196.81
2023-02-23T07:32:15.971Z,99192.31
2023-02-23T07:37:23.921Z,99193.25
2023-02-23T07:42:32.109Z,99191.34
2023-02-23T07:47:40.197Z,99187.13
2023-02-23T07:52:48.456Z,99184.59
2023-02-23T07:57:58.750Z,99183.11
2023-02-23T08:03:06.985Z,99183.63
2023-02-23T08:08:15.125Z,99180.21
2023-02-23T08:13:23.175Z,99183.77
2023-02-23T08:28:13.581Z,99181.83
2023-02-23T08:33:21.369Z,99178.59
2023-02-23T08:38:29.384Z,99178.55
2023-02-23T08:43:39.557Z,99180.42
2023-02-23T08:48:47.640Z,99184.36
2023-02-23T08:53:57.637Z,99179.66
2023-02-23T08:59:06.171Z,99179.57
2023-02-23T09:04:13.805Z,99176.09
2023-02-23T09:09:22.117Z,99174.61
2023-02-23T09:14:30.425Z,99172.35
2023-02-23T09:19:38.581Z,99174.64
2023-02-23T09:24:46.893Z,99173.32
2023-02-23T09:29:54.420Z,99171.17
2023-02-23T09:35:01.926Z,99171.96
2023-02-23T09:40:15.782Z,99169.43
2023-02-23T09:45:40.220Z,99164.85
2023-02-23T09:50:52.537Z,99169.70
2023-02-23T09:56:01.706Z,99162.20
2023-02-23T10:01:35.456Z,99164.52
2023-02-23T10:06:47.728Z,99163.63
2023-02-23T10:12:02.296Z,99164.30
2023-02-23T10:17:22.596Z,99157.77
2023-02-23T10:22:34.066Z,99147.44
2023-02-23T10:27:46.879Z,99143.77
2023-02-23T10:33:01.114Z,99138.29
2023-02-23T10:38:14.292Z,99137.86
2023-02-23T10:43:23.667Z,99134.10
2023-02-23T10:48:39.086Z,99126.73
2023-02-23T10:53:47.081Z,99121.70
2023-02-23T10:58:56.945Z,99123.33
2023-02-23T11:04:18.011Z,99114.18
2023-02-23T11:09:44.505Z,99112.02
2023-02-23T11:14:57.194Z,99099.39
2023-02-23T11:20:09.081Z,99095.41
2023-02-23T11:28:31.499Z,99086.96
2023-02-23T11:33:42.436Z,99075.38
2023-02-23T11:38:58.626Z,99069.66
2023-02-23T11:44:06.835Z,99065.52
2023-02-23T11:49:21.728Z,99065.75
2023-02-23T11:54:33.547Z,99061.41
2023-02-23T11:59:48.034Z,99055.91
2023-02-23T12:05:08.163Z,99050.86
2023-02-23T12:10:25.428Z,99042.40
2023-02-23T12:15:37.372Z,99038.21
2023-02-23T12:20:50.408Z,99034.48
2023-02-23T12:26:04.431Z,99029.00
2023-02-23T12:31:24.024Z,99025.08
2023-02-23T12:36:42.854Z,99022.36
2023-02-23T12:42:01.471Z,99013.35
2023-02-23T12:47:17.723Z,99010.11
2023-02-23T12:52:31.729Z,98994.77
2023-02-23T12:57:45.208Z,98993.59
2023-02-23T13:03:10.208Z,98981.59
2023-02-23T13:08:28.740Z,98976.49
2023-02-23T13:13:43.588Z,98970.75
2023-02-23T13:19:01.333Z,98967.74
2023-02-23T13:24:14.768Z,98960.98
2023-02-23T13:29:32.508Z,98961.39
2023-02-23T13:34:47.419Z,98952.27
2023-02-23T13:40:03.147Z,98954.69
2023-02-23T13:45:33.250Z,98942.45
2023-02-23T13:50:53.185Z,98936.49
2023-02-23T13:56:07.026Z,98930.34
2023-02-23T14:01:19.379Z,98926.30
2023-02-23T14:06:30.151Z,98921.77
2023-02-23T14:11:49.386Z,98915.11
2023-02-23T14:17:34.249Z,98913.87
2023-02-23T14:23:18.729Z,98908.80
2023-02-23T14:28:39.413Z,98905.11
2023-02-23T14:34:02.409Z,98901.94
2023-02-23T14:39:17.784Z,98897.52
2023-02-23T14:44:31.649Z,98890.06
2023-02-23T14:49:44.897Z,98884.38
2023-02-23T14:54:52.992Z,98878.52
2023-02-23T15:00:05.867Z,98874.46
2023-02-23T15:05:23.094Z,98864.41
2023-02-23T15:10:34.682Z,98856.45
2023-02-23T15:15:47.810Z,98852.73
2023-02-23T15:20:55.392Z,98847.60
2023-02-23T15:26:24.112Z,98843.09
2023-02-23T15:31:35.013Z,98837.06
2023-02-23T15:36:47.527Z,98834.23
2023-02-23T15:41:55.235Z,98826.60
2023-02-23T15:47:06.715Z,98827.38
2023-02-23T15:52:19.812Z,98818.05
2023-02-23T15:57:34.373Z,98810.98
2023-02-23T16:02:45.128Z,98807.91
2023-02-23T16:08:06.505Z,98808.75
2023-02-23T16:13:16.441Z,98804.98
2023-02-23T16:18:33.155Z,98801.92
2023-02-23T16:28:55.232Z,98796.92
2023-02-23T16:34:01.414Z,98796.38
2023-02-23T16:39:11.000Z,98796.19
2023-02-23T16:44:20.228Z,98793.67
2023-02-23T16:49:29.473Z,98795.98
2023-02-23T16:54:34.035Z,98795.26
2023-02-23T16:59:38.223Z,98792.59
2023-02-23T17:04:48.391Z,98785.70
2023-02-23T17:09:52.419Z,98784.48
2023-02-23T17:14:57.736Z,98785.91
2023-02-23T17:20:01.828Z,98783.64
2023-02-23T17:25:07.605Z,98781.20
2023-02-23T17:30:14.575Z,98778.48
2023-02-23T17:35:19.190Z,98772.52
2023-02-23T17:40:28.467Z,98766.70
2023-02-23T17:45:33.360Z,98764.13
2023-02-23T17:50:37.531Z,98759.95
2023-02-23T17:55:42.342Z,98748.98
2023-02-23T18:00:48.120Z,98745.09
2023-02-23T18:05:52.652Z,98739.83
2023-02-23T18:10:58.127Z,98737.53
2023-02-23T18:16:05.463Z,98729.77
2023-02-23T18:21:13.499Z,98735.19
2023-02-23T18:26:20.406Z,98736.95
2023-02-23T18:31:27.898Z,98735.55
2023-02-23T18:36:35.556Z,98734.59
2023-02-23T18:41:41.532Z,98733.20
2023-02-23T18:46:46.743Z,98728.25
2023-02-23T18:51:51.252Z,98722.58
2023-02-23T18:56:55.651Z,98720.33
2023-02-23T19:02:00.154Z,98715.27
2023-02-23T19:07:05.341Z,98714.67
2023-02-23T19:12:11.571Z,98712.95
2023-02-23T19:17:16.057Z,98713.20
2023-02-23T19:22:20.730Z,98710.44
2023-02-23T19:27:25.026Z,98706.98
2023-02-23T19:32:29.955Z,98707.55
2023-02-23T19:37:34.304Z,98709.10
2023-02-23T19:42:42.603Z,98706.16
2023-02-23T19:47:47.509Z,98698.02
2023-02-23T19:52:51.361Z,98696.84
2023-02-23T19:57:55.549Z,98690.27
2023-02-23T20:03:05.718Z,98690.88
2023-02-23T20:08:10.186Z,98697.02
2023-02-23T20:13:14.092Z,98698.23
2023-02-23T20:18:20.511Z,98699.10
2023-02-23T20:29:11.365Z,98684.73
2023-02-23T20:34:22.199Z,98687.75
2023-02-23T20:39:32.898Z,98679.27
2023-02-23T20:44:40.589Z,98674.37
2023-02-23T20:49:48.163Z,98669.98
2023-02-23T20:54:55.415Z,98665.88
2023-02-23T21:00:29.006Z,98661.56
2023-02-23T21:05:42.365Z,98658.19
2023-02-23T21:10:50.832Z,98656.95
2023-02-23T21:16:01.686Z,98651.25
2023-02-23T21:21:10.993Z,98646.51
2023-02-23T21:26:21.931Z,98643.61
2023-02-23T21:31:30.266Z,98644.67
2023-02-23T21:36:38.902Z,98642.77
2023-02-23T21:41:46.777Z,98638.09
2023-02-23T21:46:54.488Z,98627.48
2023-02-23T21:52:02.416Z,98618.13
2023-02-23T21:57:11.250Z,98618.03
2023-02-23T22:02:20.214Z,98617.28
2023-02-23T22:07:29.507Z,98615.57
2023-02-23T22:12:37.392Z,98604.71
2023-02-23T22:17:45.722Z,98594.17
2023-02-23T22:22:53.598Z,98582.07
2023-02-23T22:28:02.187Z,98568.98
2023-02-23T22:33:10.283Z,98564.95
2023-02-23T22:38:19.904Z,98561.15
2023-02-23T22:43:27.510Z,98559.42
2023-02-23T22:48:35.410Z,98550.80
2023-02-23T22:53:43.656Z,98544.08
2023-02-23T22:58:53.820Z,98539.90
2023-02-23T23:04:06.683Z,98538.48
2023-02-23T23:09:16.813Z,98530.83
2023-02-23T23:14:24.791Z,98528.88
2023-02-23T23:19:39.219Z,98520.98
2023-02-23T23:24:49.286Z,98515.79
2023-02-23T23:29:59.641Z,98517.33
2023-02-23T23:35:11.714Z,98509.80
2023-02-23T23:40:24.799Z,98502.39
2023-02-23T23:45:38.418Z,98501.34
2023-02-23T23:50:46.261Z,98494.88
2023-02-23T23:55:53.943Z,98490.76
